sensor_id;sensor_type;location;lat;lon;timestamp;P1;durP1;ratioP1;P2;durP2;ratioP2
48613;SDS011;34408;51.426;5.444;2023-04-24T00:00:46;5.03;;;2.65;;
48613;SDS011;34408;51.426;5.444;2023-04-24T00:03:14;5.47;;;2.50;;
48613;SDS011;34408;51.426;5.444;2023-04-24T00:05:43;3.95;;;2.42;;
48613;SDS011;34408;51.426;5.444;2023-04-24T00:08:11;5.72;;;3.40;;
48613;SDS011;34408;51.426;5.444;2023-04-24T00:10:39;7.95;;;3.65;;
48613;SDS011;34408;51.426;5.444;2023-04-24T00:13:07;7.53;;;3.63;;
48613;SDS011;34408;51.426;5.444;2023-04-24T00:15:35;7.50;;;3.65;;
48613;SDS011;34408;51.426;5.444;2023-04-24T00:18:02;5.97;;;2.90;;
48613;SDS011;34408;51.426;5.444;2023-04-24T00:20:30;6.75;;;3.30;;
48613;SDS011;34408;51.426;5.444;2023-04-24T00:23:00;6.10;;;3.70;;
48613;SDS011;34408;51.426;5.444;2023-04-24T00:25:28;7.13;;;3.72;;
48613;SDS011;34408;51.426;5.444;2023-04-24T00:27:56;7.05;;;3.63;;
48613;SDS011;34408;51.426;5.444;2023-04-24T00:30:24;7.75;;;3.03;;
48613;SDS011;34408;51.426;5.444;2023-04-24T00:32:52;9.00;;;3.80;;
48613;SDS011;34408;51.426;5.444;2023-04-24T00:35:19;8.55;;;3.25;;
48613;SDS011;34408;51.426;5.444;2023-04-24T00:37:47;4.82;;;3.50;;
48613;SDS011;34408;51.426;5.444;2023-04-24T00:40:17;7.78;;;3.28;;
48613;SDS011;34408;51.426;5.444;2023-04-24T00:42:45;6.78;;;3.85;;
48613;SDS011;34408;51.426;5.444;2023-04-24T00:45:12;5.85;;;3.53;;
48613;SDS011;34408;51.426;5.444;2023-04-24T00:47:41;8.05;;;3.70;;
48613;SDS011;34408;51.426;5.444;2023-04-24T00:50:09;8.13;;;3.30;;
48613;SDS011;34408;51.426;5.444;2023-04-24T00:52:37;8.77;;;3.67;;
48613;SDS011;34408;51.426;5.444;2023-04-24T00:55:07;5.32;;;3.30;;
48613;SDS011;34408;51.426;5.444;2023-04-24T00:57:37;5.32;;;3.53;;
48613;SDS011;34408;51.426;5.444;2023-04-24T01:00:05;7.97;;;3.78;;
48613;SDS011;34408;51.426;5.444;2023-04-24T01:02:38;7.60;;;3.58;;
48613;SDS011;34408;51.426;5.444;2023-04-24T01:05:10;6.35;;;3.55;;
48613;SDS011;34408;51.426;5.444;2023-04-24T01:07:39;7.45;;;3.78;;
48613;SDS011;34408;51.426;5.444;2023-04-24T01:10:10;6.50;;;3.53;;
48613;SDS011;34408;51.426;5.444;2023-04-24T01:12:40;6.40;;;4.25;;
48613;SDS011;34408;51.426;5.444;2023-04-24T01:15:08;11.32;;;4.82;;
48613;SDS011;34408;51.426;5.444;2023-04-24T01:17:37;9.75;;;4.50;;
48613;SDS011;34408;51.426;5.444;2023-04-24T01:20:05;7.72;;;4.10;;
48613;SDS011;34408;51.426;5.444;2023-04-24T01:22:36;8.45;;;4.30;;
48613;SDS011;34408;51.426;5.444;2023-04-24T01:25:04;6.53;;;4.53;;
48613;SDS011;34408;51.426;5.444;2023-04-24T01:27:32;6.43;;;4.15;;
48613;SDS011;34408;51.426;5.444;2023-04-24T01:30:00;10.70;;;5.15;;
48613;SDS011;34408;51.426;5.444;2023-04-24T01:32:28;8.05;;;5.07;;
48613;SDS011;34408;51.426;5.444;2023-04-24T01:34:56;13.30;;;4.85;;
48613;SDS011;34408;51.426;5.444;2023-04-24T01:37:24;7.55;;;4.35;;
48613;SDS011;34408;51.426;5.444;2023-04-24T01:39:54;10.07;;;5.13;;
48613;SDS011;34408;51.426;5.444;2023-04-24T01:42:22;6.97;;;5.13;;
48613;SDS011;34408;51.426;5.444;2023-04-24T01:44:50;10.43;;;5.30;;
48613;SDS011;34408;51.426;5.444;2023-04-24T01:47:18;9.20;;;6.07;;
48613;SDS011;34408;51.426;5.444;2023-04-24T01:49:46;11.68;;;6.80;;
48613;SDS011;34408;51.426;5.444;2023-04-24T01:52:15;11.77;;;6.65;;
48613;SDS011;34408;51.426;5.444;2023-04-24T01:54:44;8.20;;;5.40;;
48613;SDS011;34408;51.426;5.444;2023-04-24T01:57:13;8.77;;;5.53;;
48613;SDS011;34408;51.426;5.444;2023-04-24T01:59:41;9.20;;;5.07;;
48613;SDS011;34408;51.426;5.444;2023-04-24T02:02:09;10.20;;;5.75;;
48613;SDS011;34408;51.426;5.444;2023-04-24T02:04:37;9.20;;;5.40;;
48613;SDS011;34408;51.426;5.444;2023-04-24T02:07:06;10.45;;;5.70;;
48613;SDS011;34408;51.426;5.444;2023-04-24T02:09:34;11.10;;;5.63;;
48613;SDS011;34408;51.426;5.444;2023-04-24T02:12:01;10.07;;;5.47;;
48613;SDS011;34408;51.426;5.444;2023-04-24T02:14:30;9.10;;;5.57;;
48613;SDS011;34408;51.426;5.444;2023-04-24T02:16:58;8.32;;;5.25;;
48613;SDS011;34408;51.426;5.444;2023-04-24T02:19:26;11.13;;;6.43;;
48613;SDS011;34408;51.426;5.444;2023-04-24T02:21:54;11.60;;;6.13;;
48613;SDS011;34408;51.426;5.444;2023-04-24T02:24:22;9.65;;;5.57;;
48613;SDS011;34408;51.426;5.444;2023-04-24T02:26:50;11.55;;;6.00;;
48613;SDS011;34408;51.426;5.444;2023-04-24T02:29:17;8.30;;;5.53;;
48613;SDS011;34408;51.426;5.444;2023-04-24T02:31:46;9.02;;;5.45;;
48613;SDS011;34408;51.426;5.444;2023-04-24T02:34:14;10.68;;;6.13;;
48613;SDS011;34408;51.426;5.444;2023-04-24T02:36:42;8.52;;;5.53;;
48613;SDS011;34408;51.426;5.444;2023-04-24T02:39:10;11.20;;;6.47;;
48613;SDS011;34408;51.426;5.444;2023-04-24T02:41:38;10.75;;;6.18;;
48613;SDS011;34408;51.426;5.444;2023-04-24T02:44:05;9.73;;;5.20;;
48613;SDS011;34408;51.426;5.444;2023-04-24T02:46:33;12.27;;;5.20;;
48613;SDS011;34408;51.426;5.444;2023-04-24T02:49:02;9.75;;;5.88;;
48613;SDS011;34408;51.426;5.444;2023-04-24T02:51:30;8.52;;;5.25;;
48613;SDS011;34408;51.426;5.444;2023-04-24T02:53:58;9.23;;;5.75;;
48613;SDS011;34408;51.426;5.444;2023-04-24T02:56:25;12.43;;;6.40;;
48613;SDS011;34408;51.426;5.444;2023-04-24T02:58:53;12.32;;;5.88;;
48613;SDS011;34408;51.426;5.444;2023-04-24T03:01:21;10.85;;;5.47;;
48613;SDS011;34408;51.426;5.444;2023-04-24T03:03:49;9.98;;;5.22;;
48613;SDS011;34408;51.426;5.444;2023-04-24T03:06:18;9.40;;;5.43;;
48613;SDS011;34408;51.426;5.444;2023-04-24T03:08:47;12.77;;;6.50;;
48613;SDS011;34408;51.426;5.444;2023-04-24T03:11:14;9.98;;;4.85;;
48613;SDS011;34408;51.426;5.444;2023-04-24T03:13:42;13.25;;;6.15;;
48613;SDS011;34408;51.426;5.444;2023-04-24T03:16:10;12.25;;;6.05;;
48613;SDS011;34408;51.426;5.444;2023-04-24T03:18:38;11.55;;;4.78;;
48613;SDS011;34408;51.426;5.444;2023-04-24T03:21:06;9.73;;;5.07;;
48613;SDS011;34408;51.426;5.444;2023-04-24T03:23:35;7.65;;;5.03;;
48613;SDS011;34408;51.426;5.444;2023-04-24T03:26:03;11.43;;;5.05;;
48613;SDS011;34408;51.426;5.444;2023-04-24T03:28:30;9.48;;;5.22;;
48613;SDS011;34408;51.426;5.444;2023-04-24T03:30:58;12.55;;;4.63;;
48613;SDS011;34408;51.426;5.444;2023-04-24T03:33:26;8.80;;;4.90;;
48613;SDS011;34408;51.426;5.444;2023-04-24T03:35:54;10.63;;;5.30;;
48613;SDS011;34408;51.426;5.444;2023-04-24T03:38:22;9.00;;;4.75;;
48613;SDS011;34408;51.426;5.444;2023-04-24T03:40:51;11.32;;;5.00;;
48613;SDS011;34408;51.426;5.444;2023-04-24T03:43:18;11.50;;;5.20;;
48613;SDS011;34408;51.426;5.444;2023-04-24T03:45:46;8.70;;;4.82;;
48613;SDS011;34408;51.426;5.444;2023-04-24T03:48:14;9.02;;;4.88;;
48613;SDS011;34408;51.426;5.444;2023-04-24T03:50:41;9.88;;;5.13;;
48613;SDS011;34408;51.426;5.444;2023-04-24T03:53:09;9.15;;;4.85;;
48613;SDS011;34408;51.426;5.444;2023-04-24T03:55:37;7.22;;;4.38;;
48613;SDS011;34408;51.426;5.444;2023-04-24T03:58:06;10.05;;;5.20;;
48613;SDS011;34408;51.426;5.444;2023-04-24T04:00:34;8.55;;;4.45;;
48613;SDS011;34408;51.426;5.444;2023-04-24T04:03:03;10.32;;;4.65;;
48613;SDS011;34408;51.426;5.444;2023-04-24T04:05:31;8.02;;;3.92;;
48613;SDS011;34408;51.426;5.444;2023-04-24T04:07:59;6.88;;;4.00;;
48613;SDS011;34408;51.426;5.444;2023-04-24T04:10:27;10.63;;;4.50;;
48613;SDS011;34408;51.426;5.444;2023-04-24T04:12:55;7.72;;;4.50;;
48613;SDS011;34408;51.426;5.444;2023-04-24T04:15:24;8.43;;;4.40;;
48613;SDS011;34408;51.426;5.444;2023-04-24T04:17:51;9.02;;;4.03;;
48613;SDS011;34408;51.426;5.444;2023-04-24T04:20:19;7.53;;;3.75;;
48613;SDS011;34408;51.426;5.444;2023-04-24T04:22:47;8.13;;;4.03;;
48613;SDS011;34408;51.426;5.444;2023-04-24T04:25:15;5.63;;;3.90;;
48613;SDS011;34408;51.426;5.444;2023-04-24T04:27:45;10.23;;;4.05;;
48613;SDS011;34408;51.426;5.444;2023-04-24T04:30:14;7.35;;;4.53;;
48613;SDS011;34408;51.426;5.444;2023-04-24T04:32:43;7.47;;;4.07;;
48613;SDS011;34408;51.426;5.444;2023-04-24T04:35:11;5.05;;;3.75;;
48613;SDS011;34408;51.426;5.444;2023-04-24T04:37:39;7.30;;;3.92;;
48613;SDS011;34408;51.426;5.444;2023-04-24T04:40:07;6.45;;;3.67;;
48613;SDS011;34408;51.426;5.444;2023-04-24T04:42:38;5.78;;;3.85;;
48613;SDS011;34408;51.426;5.444;2023-04-24T04:45:06;5.03;;;2.97;;
48613;SDS011;34408;51.426;5.444;2023-04-24T04:47:37;5.65;;;3.63;;
48613;SDS011;34408;51.426;5.444;2023-04-24T04:50:07;5.72;;;3.05;;
48613;SDS011;34408;51.426;5.444;2023-04-24T04:52:36;5.60;;;3.25;;
48613;SDS011;34408;51.426;5.444;2023-04-24T04:55:04;5.88;;;3.85;;
48613;SDS011;34408;51.426;5.444;2023-04-24T04:57:33;7.72;;;3.38;;
48613;SDS011;34408;51.426;5.444;2023-04-24T05:00:01;7.85;;;2.97;;
48613;SDS011;34408;51.426;5.444;2023-04-24T05:02:30;7.10;;;3.55;;
48613;SDS011;34408;51.426;5.444;2023-04-24T05:04:58;4.75;;;3.20;;
48613;SDS011;34408;51.426;5.444;2023-04-24T05:07:28;4.88;;;2.92;;
48613;SDS011;34408;51.426;5.444;2023-04-24T05:09:55;4.80;;;2.85;;
48613;SDS011;34408;51.426;5.444;2023-04-24T05:12:23;4.45;;;2.70;;
48613;SDS011;34408;51.426;5.444;2023-04-24T05:14:51;4.45;;;2.75;;
48613;SDS011;34408;51.426;5.444;2023-04-24T05:17:19;3.40;;;2.50;;
48613;SDS011;34408;51.426;5.444;2023-04-24T05:19:46;4.32;;;2.70;;
48613;SDS011;34408;51.426;5.444;2023-04-24T05:22:14;3.72;;;2.25;;
48613;SDS011;34408;51.426;5.444;2023-04-24T05:24:45;5.18;;;2.10;;
48613;SDS011;34408;51.426;5.444;2023-04-24T05:27:12;4.03;;;2.03;;
48613;SDS011;34408;51.426;5.444;2023-04-24T05:29:41;2.75;;;2.10;;
48613;SDS011;34408;51.426;5.444;2023-04-24T05:32:10;3.45;;;2.00;;
48613;SDS011;34408;51.426;5.444;2023-04-24T05:34:37;3.50;;;1.80;;
48613;SDS011;34408;51.426;5.444;2023-04-24T05:37:05;3.75;;;2.22;;
48613;SDS011;34408;51.426;5.444;2023-04-24T05:39:36;3.03;;;1.80;;
48613;SDS011;34408;51.426;5.444;2023-04-24T05:42:05;4.63;;;1.40;;
48613;SDS011;34408;51.426;5.444;2023-04-24T05:44:33;3.38;;;1.30;;
48613;SDS011;34408;51.426;5.444;2023-04-24T05:47:00;3.25;;;1.55;;
48613;SDS011;34408;51.426;5.444;2023-04-24T05:49:28;2.25;;;1.20;;
48613;SDS011;34408;51.426;5.444;2023-04-24T05:51:56;2.00;;;1.10;;
48613;SDS011;34408;51.426;5.444;2023-04-24T05:54:24;3.35;;;1.25;;
48613;SDS011;34408;51.426;5.444;2023-04-24T05:56:52;2.58;;;1.40;;
48613;SDS011;34408;51.426;5.444;2023-04-24T05:59:22;2.22;;;1.20;;
48613;SDS011;34408;51.426;5.444;2023-04-24T06:01:49;3.40;;;1.30;;
48613;SDS011;34408;51.426;5.444;2023-04-24T06:04:17;2.40;;;1.38;;
48613;SDS011;34408;51.426;5.444;2023-04-24T06:06:45;2.20;;;1.50;;
48613;SDS011;34408;51.426;5.444;2023-04-24T06:09:16;2.40;;;1.20;;
48613;SDS011;34408;51.426;5.444;2023-04-24T06:11:45;3.22;;;1.10;;
48613;SDS011;34408;51.426;5.444;2023-04-24T06:14:12;5.03;;;1.15;;
48613;SDS011;34408;51.426;5.444;2023-04-24T06:16:42;3.03;;;1.35;;
48613;SDS011;34408;51.426;5.444;2023-04-24T06:19:10;2.10;;;1.38;;
48613;SDS011;34408;51.426;5.444;2023-04-24T06:21:37;2.10;;;1.40;;
48613;SDS011;34408;51.426;5.444;2023-04-24T06:24:05;3.15;;;1.50;;
48613;SDS011;34408;51.426;5.444;2023-04-24T06:26:33;3.72;;;1.70;;
48613;SDS011;34408;51.426;5.444;2023-04-24T06:29:01;3.90;;;1.52;;
48613;SDS011;34408;51.426;5.444;2023-04-24T06:31:29;2.92;;;1.60;;
48613;SDS011;34408;51.426;5.444;2023-04-24T06:33:58;4.80;;;1.88;;
48613;SDS011;34408;51.426;5.444;2023-04-24T06:36:26;3.10;;;1.75;;
48613;SDS011;34408;51.426;5.444;2023-04-24T06:38:54;4.65;;;1.58;;
48613;SDS011;34408;51.426;5.444;2023-04-24T06:41:21;3.65;;;1.90;;
48613;SDS011;34408;51.426;5.444;2023-04-24T06:43:49;4.00;;;2.40;;
48613;SDS011;34408;51.426;5.444;2023-04-24T06:46:17;4.70;;;2.50;;
48613;SDS011;34408;51.426;5.444;2023-04-24T06:48:45;5.35;;;2.40;;
48613;SDS011;34408;51.426;5.444;2023-04-24T06:51:14;4.25;;;2.33;;
48613;SDS011;34408;51.426;5.444;2023-04-24T06:53:41;3.92;;;2.38;;
48613;SDS011;34408;51.426;5.444;2023-04-24T06:56:09;6.35;;;2.60;;
48613;SDS011;34408;51.426;5.444;2023-04-24T06:58:37;6.90;;;3.28;;
48613;SDS011;34408;51.426;5.444;2023-04-24T07:01:05;6.72;;;3.67;;
48613;SDS011;34408;51.426;5.444;2023-04-24T07:03:33;7.55;;;3.55;;
48613;SDS011;34408;51.426;5.444;2023-04-24T07:06:01;6.55;;;4.45;;
48613;SDS011;34408;51.426;5.444;2023-04-24T07:08:31;6.50;;;4.57;;
48613;SDS011;34408;51.426;5.444;2023-04-24T07:11:00;9.27;;;4.20;;
48613;SDS011;34408;51.426;5.444;2023-04-24T07:13:27;13.15;;;5.32;;
48613;SDS011;34408;51.426;5.444;2023-04-24T07:15:56;9.82;;;4.65;;
48613;SDS011;34408;51.426;5.444;2023-04-24T07:18:24;7.40;;;4.60;;
48613;SDS011;34408;51.426;5.444;2023-04-24T07:20:51;9.48;;;4.53;;
48613;SDS011;34408;51.426;5.444;2023-04-24T07:23:19;11.98;;;5.40;;
48613;SDS011;34408;51.426;5.444;2023-04-24T07:25:48;8.40;;;5.05;;
48613;SDS011;34408;51.426;5.444;2023-04-24T07:28:16;9.52;;;5.03;;
48613;SDS011;34408;51.426;5.444;2023-04-24T07:30:44;9.68;;;5.45;;
48613;SDS011;34408;51.426;5.444;2023-04-24T07:33:12;8.10;;;5.00;;
48613;SDS011;34408;51.426;5.444;2023-04-24T07:35:40;6.93;;;4.22;;
48613;SDS011;34408;51.426;5.444;2023-04-24T07:38:07;7.03;;;4.50;;
48613;SDS011;34408;51.426;5.444;2023-04-24T07:40:35;10.10;;;3.83;;
48613;SDS011;34408;51.426;5.444;2023-04-24T07:43:05;7.93;;;3.75;;
48613;SDS011;34408;51.426;5.444;2023-04-24T07:45:33;11.40;;;4.47;;
48613;SDS011;34408;51.426;5.444;2023-04-24T07:48:03;9.40;;;4.00;;
48613;SDS011;34408;51.426;5.444;2023-04-24T07:50:31;8.63;;;3.45;;
48613;SDS011;34408;51.426;5.444;2023-04-24T07:52:59;10.45;;;3.85;;
48613;SDS011;34408;51.426;5.444;2023-04-24T07:55:27;8.75;;;3.97;;
48613;SDS011;34408;51.426;5.444;2023-04-24T07:57:54;11.07;;;4.43;;
48613;SDS011;34408;51.426;5.444;2023-04-24T08:00:23;10.93;;;4.32;;
48613;SDS011;34408;51.426;5.444;2023-04-24T08:02:51;12.80;;;4.05;;
48613;SDS011;34408;51.426;5.444;2023-04-24T08:05:19;14.18;;;4.65;;
48613;SDS011;34408;51.426;5.444;2023-04-24T08:07:47;15.05;;;5.57;;
48613;SDS011;34408;51.426;5.444;2023-04-24T08:10:16;13.98;;;4.40;;
48613;SDS011;34408;51.426;5.444;2023-04-24T08:12:44;12.68;;;4.82;;
48613;SDS011;34408;51.426;5.444;2023-04-24T08:15:12;11.88;;;3.63;;
48613;SDS011;34408;51.426;5.444;2023-04-24T08:17:41;16.48;;;5.18;;
48613;SDS011;34408;51.426;5.444;2023-04-24T08:20:09;10.43;;;3.88;;
48613;SDS011;34408;51.426;5.444;2023-04-24T08:22:39;10.82;;;4.15;;
48613;SDS011;34408;51.426;5.444;2023-04-24T08:25:08;15.02;;;4.70;;
48613;SDS011;34408;51.426;5.444;2023-04-24T08:27:37;15.45;;;4.90;;
48613;SDS011;34408;51.426;5.444;2023-04-24T08:30:05;9.38;;;3.80;;
48613;SDS011;34408;51.426;5.444;2023-04-24T08:32:34;14.80;;;4.30;;
48613;SDS011;34408;51.426;5.444;2023-04-24T08:35:03;10.10;;;4.00;;
48613;SDS011;34408;51.426;5.444;2023-04-24T08:37:31;12.27;;;4.43;;
48613;SDS011;34408;51.426;5.444;2023-04-24T08:40:00;11.15;;;4.10;;
48613;SDS011;34408;51.426;5.444;2023-04-24T08:42:28;13.35;;;3.83;;
48613;SDS011;34408;51.426;5.444;2023-04-24T08:44:59;10.40;;;3.20;;
48613;SDS011;34408;51.426;5.444;2023-04-24T08:47:28;15.48;;;5.35;;
48613;SDS011;34408;51.426;5.444;2023-04-24T08:49:57;14.00;;;3.97;;
48613;SDS011;34408;51.426;5.444;2023-04-24T08:52:30;16.95;;;4.55;;
48613;SDS011;34408;51.426;5.444;2023-04-24T08:54:59;13.77;;;5.05;;
48613;SDS011;34408;51.426;5.444;2023-04-24T08:57:27;14.45;;;3.55;;
48613;SDS011;34408;51.426;5.444;2023-04-24T08:59:55;11.75;;;3.03;;
48613;SDS011;34408;51.426;5.444;2023-04-24T09:02:25;16.42;;;4.35;;
48613;SDS011;34408;51.426;5.444;2023-04-24T09:04:53;18.23;;;3.95;;
48613;SDS011;34408;51.426;5.444;2023-04-24T09:07:23;14.20;;;4.10;;
48613;SDS011;34408;51.426;5.444;2023-04-24T09:09:53;14.23;;;3.97;;
48613;SDS011;34408;51.426;5.444;2023-04-24T09:12:22;10.60;;;2.92;;
48613;SDS011;34408;51.426;5.444;2023-04-24T09:14:49;7.82;;;2.35;;
48613;SDS011;34408;51.426;5.444;2023-04-24T09:17:18;10.52;;;2.85;;
48613;SDS011;34408;51.426;5.444;2023-04-24T09:19:46;9.57;;;2.80;;
48613;SDS011;34408;51.426;5.444;2023-04-24T09:22:14;7.00;;;1.95;;
48613;SDS011;34408;51.426;5.444;2023-04-24T09:24:42;12.55;;;4.10;;
48613;SDS011;34408;51.426;5.444;2023-04-24T09:27:11;11.40;;;4.28;;
48613;SDS011;34408;51.426;5.444;2023-04-24T09:29:47;10.10;;;2.92;;
48613;SDS011;34408;51.426;5.444;2023-04-24T09:32:21;11.30;;;2.55;;
48613;SDS011;34408;51.426;5.444;2023-04-24T09:35:04;10.38;;;2.30;;
48613;SDS011;34408;51.426;5.444;2023-04-24T09:37:34;9.75;;;3.25;;
48613;SDS011;34408;51.426;5.444;2023-04-24T09:40:10;14.60;;;3.63;;
48613;SDS011;34408;51.426;5.444;2023-04-24T09:42:51;9.65;;;2.63;;
48613;SDS011;34408;51.426;5.444;2023-04-24T09:45:20;11.02;;;3.28;;
48613;SDS011;34408;51.426;5.444;2023-04-24T09:47:51;10.88;;;3.28;;
48613;SDS011;34408;51.426;5.444;2023-04-24T09:50:19;7.25;;;2.53;;
48613;SDS011;34408;51.426;5.444;2023-04-24T09:52:55;11.20;;;2.50;;
48613;SDS011;34408;51.426;5.444;2023-04-24T09:55:24;11.82;;;3.40;;
48613;SDS011;34408;51.426;5.444;2023-04-24T09:57:54;15.68;;;3.67;;
48613;SDS011;34408;51.426;5.444;2023-04-24T10:00:26;16.02;;;3.40;;
48613;SDS011;34408;51.426;5.444;2023-04-24T10:02:56;9.05;;;2.67;;
48613;SDS011;34408;51.426;5.444;2023-04-24T10:05:26;12.00;;;3.35;;
48613;SDS011;34408;51.426;5.444;2023-04-24T10:07:56;9.10;;;2.40;;
48613;SDS011;34408;51.426;5.444;2023-04-24T10:10:24;8.85;;;2.28;;
48613;SDS011;34408;51.426;5.444;2023-04-24T10:12:54;8.00;;;2.63;;
48613;SDS011;34408;51.426;5.444;2023-04-24T10:15:22;11.55;;;2.33;;
48613;SDS011;34408;51.426;5.444;2023-04-24T10:17:50;9.88;;;3.10;;
48613;SDS011;34408;51.426;5.444;2023-04-24T10:20:19;6.82;;;2.22;;
48613;SDS011;34408;51.426;5.444;2023-04-24T10:22:48;7.50;;;2.80;;
48613;SDS011;34408;51.426;5.444;2023-04-24T10:25:18;9.07;;;2.80;;
48613;SDS011;34408;51.426;5.444;2023-04-24T10:27:48;9.15;;;2.60;;
48613;SDS011;34408;51.426;5.444;2023-04-24T10:30:19;11.52;;;2.80;;
48613;SDS011;34408;51.426;5.444;2023-04-24T10:32:47;7.95;;;1.80;;
48613;SDS011;34408;51.426;5.444;2023-04-24T10:35:15;11.35;;;2.55;;
48613;SDS011;34408;51.426;5.444;2023-04-24T10:37:48;6.63;;;2.10;;
48613;SDS011;34408;51.426;5.444;2023-04-24T10:40:18;9.07;;;1.83;;
48613;SDS011;34408;51.426;5.444;2023-04-24T10:42:52;7.35;;;2.50;;
48613;SDS011;34408;51.426;5.444;2023-04-24T10:45:25;11.13;;;2.15;;
48613;SDS011;34408;51.426;5.444;2023-04-24T10:47:56;6.03;;;1.65;;
48613;SDS011;34408;51.426;5.444;2023-04-24T10:50:28;9.20;;;2.15;;
48613;SDS011;34408;51.426;5.444;2023-04-24T10:53:04;9.35;;;3.10;;
48613;SDS011;34408;51.426;5.444;2023-04-24T10:58:08;7.30;;;1.90;;
48613;SDS011;34408;51.426;5.444;2023-04-24T11:00:37;4.18;;;1.55;;
48613;SDS011;34408;51.426;5.444;2023-04-24T11:03:12;5.88;;;2.13;;
48613;SDS011;34408;51.426;5.444;2023-04-24T11:05:52;5.15;;;1.67;;
48613;SDS011;34408;51.426;5.444;2023-04-24T11:11:10;4.60;;;1.45;;
48613;SDS011;34408;51.426;5.444;2023-04-24T11:16:32;5.38;;;1.63;;
48613;SDS011;34408;51.426;5.444;2023-04-24T11:19:02;4.43;;;1.48;;
48613;SDS011;34408;51.426;5.444;2023-04-24T11:21:32;5.35;;;1.50;;
48613;SDS011;34408;51.426;5.444;2023-04-24T11:24:23;8.02;;;1.92;;
48613;SDS011;34408;51.426;5.444;2023-04-24T11:26:52;3.78;;;1.30;;
48613;SDS011;34408;51.426;5.444;2023-04-24T11:29:21;2.38;;;1.33;;
48613;SDS011;34408;51.426;5.444;2023-04-24T11:31:52;7.47;;;2.47;;
48613;SDS011;34408;51.426;5.444;2023-04-24T11:34:20;6.20;;;1.92;;
48613;SDS011;34408;51.426;5.444;2023-04-24T11:36:48;5.57;;;1.60;;
48613;SDS011;34408;51.426;5.444;2023-04-24T11:39:16;3.03;;;1.05;;
48613;SDS011;34408;51.426;5.444;2023-04-24T11:41:43;6.72;;;2.35;;
48613;SDS011;34408;51.426;5.444;2023-04-24T11:44:11;4.55;;;1.35;;
48613;SDS011;34408;51.426;5.444;2023-04-24T11:46:41;4.93;;;1.98;;
48613;SDS011;34408;51.426;5.444;2023-04-24T11:49:11;5.53;;;1.77;;
48613;SDS011;34408;51.426;5.444;2023-04-24T11:51:39;5.85;;;1.40;;
48613;SDS011;34408;51.426;5.444;2023-04-24T11:54:18;3.15;;;1.13;;
48613;SDS011;34408;51.426;5.444;2023-04-24T11:56:46;3.03;;;0.98;;
48613;SDS011;34408;51.426;5.444;2023-04-24T11:59:14;1.90;;;1.00;;
48613;SDS011;34408;51.426;5.444;2023-04-24T12:01:42;4.20;;;1.00;;
48613;SDS011;34408;51.426;5.444;2023-04-24T12:04:12;2.75;;;0.88;;
48613;SDS011;34408;51.426;5.444;2023-04-24T12:09:27;2.90;;;1.10;;
48613;SDS011;34408;51.426;5.444;2023-04-24T12:11:55;2.67;;;0.95;;
48613;SDS011;34408;51.426;5.444;2023-04-24T12:14:24;1.98;;;1.00;;
48613;SDS011;34408;51.426;5.444;2023-04-24T12:16:51;4.47;;;1.63;;
48613;SDS011;34408;51.426;5.444;2023-04-24T12:19:22;2.38;;;1.20;;
48613;SDS011;34408;51.426;5.444;2023-04-24T12:22:00;5.30;;;1.13;;
48613;SDS011;34408;51.426;5.444;2023-04-24T12:24:28;2.35;;;0.80;;
48613;SDS011;34408;51.426;5.444;2023-04-24T12:26:56;4.80;;;0.90;;
48613;SDS011;34408;51.426;5.444;2023-04-24T12:29:25;5.55;;;1.17;;
48613;SDS011;34408;51.426;5.444;2023-04-24T12:31:53;5.78;;;1.13;;
48613;SDS011;34408;51.426;5.444;2023-04-24T12:34:23;6.47;;;1.25;;
48613;SDS011;34408;51.426;5.444;2023-04-24T12:36:52;3.38;;;1.10;;
48613;SDS011;34408;51.426;5.444;2023-04-24T12:39:20;3.42;;;1.17;;
48613;SDS011;34408;51.426;5.444;2023-04-24T12:41:50;2.40;;;0.90;;
48613;SDS011;34408;51.426;5.444;2023-04-24T12:44:28;4.47;;;1.10;;
48613;SDS011;34408;51.426;5.444;2023-04-24T12:46:56;3.85;;;0.90;;
48613;SDS011;34408;51.426;5.444;2023-04-24T12:49:26;5.40;;;1.48;;
48613;SDS011;34408;51.426;5.444;2023-04-24T12:51:54;1.15;;;0.73;;
48613;SDS011;34408;51.426;5.444;2023-04-24T12:54:22;3.47;;;0.95;;
48613;SDS011;34408;51.426;5.444;2023-04-24T12:56:50;12.00;;;1.40;;
48613;SDS011;34408;51.426;5.444;2023-04-24T12:59:17;3.45;;;0.95;;
48613;SDS011;34408;51.426;5.444;2023-04-24T13:01:45;6.03;;;1.20;;
48613;SDS011;34408;51.426;5.444;2023-04-24T13:04:13;4.35;;;1.05;;
48613;SDS011;34408;51.426;5.444;2023-04-24T13:06:43;3.85;;;0.93;;
48613;SDS011;34408;51.426;5.444;2023-04-24T13:09:11;2.90;;;1.10;;
48613;SDS011;34408;51.426;5.444;2023-04-24T13:11:38;3.97;;;1.20;;
48613;SDS011;34408;51.426;5.444;2023-04-24T13:14:06;2.90;;;1.00;;
48613;SDS011;34408;51.426;5.444;2023-04-24T13:16:34;5.15;;;1.00;;
48613;SDS011;34408;51.426;5.444;2023-04-24T13:19:02;5.28;;;1.30;;
48613;SDS011;34408;51.426;5.444;2023-04-24T13:21:30;4.15;;;1.20;;
48613;SDS011;34408;51.426;5.444;2023-04-24T13:23:59;3.92;;;1.35;;
48613;SDS011;34408;51.426;5.444;2023-04-24T13:26:27;4.75;;;1.10;;
48613;SDS011;34408;51.426;5.444;2023-04-24T13:28:55;4.30;;;1.27;;
48613;SDS011;34408;51.426;5.444;2023-04-24T13:31:22;5.25;;;1.27;;
48613;SDS011;34408;51.426;5.444;2023-04-24T13:33:50;7.65;;;1.58;;
48613;SDS011;34408;51.426;5.444;2023-04-24T13:36:18;3.47;;;1.13;;
48613;SDS011;34408;51.426;5.444;2023-04-24T13:38:46;7.00;;;1.58;;
48613;SDS011;34408;51.426;5.444;2023-04-24T13:41:15;6.95;;;1.40;;
48613;SDS011;34408;51.426;5.444;2023-04-24T13:43:43;4.45;;;1.00;;
48613;SDS011;34408;51.426;5.444;2023-04-24T13:46:11;6.10;;;1.60;;
48613;SDS011;34408;51.426;5.444;2023-04-24T13:48:39;3.92;;;1.00;;
48613;SDS011;34408;51.426;5.444;2023-04-24T13:51:06;4.20;;;1.40;;
48613;SDS011;34408;51.426;5.444;2023-04-24T13:53:35;8.50;;;1.90;;
48613;SDS011;34408;51.426;5.444;2023-04-24T13:56:04;3.17;;;1.05;;
48613;SDS011;34408;51.426;5.444;2023-04-24T13:58:34;2.90;;;1.27;;
48613;SDS011;34408;51.426;5.444;2023-04-24T14:01:03;4.43;;;1.60;;
48613;SDS011;34408;51.426;5.444;2023-04-24T14:03:32;3.03;;;1.00;;
48613;SDS011;34408;51.426;5.444;2023-04-24T14:06:00;6.25;;;1.50;;
48613;SDS011;34408;51.426;5.444;2023-04-24T14:08:28;7.32;;;1.98;;
48613;SDS011;34408;51.426;5.444;2023-04-24T14:10:56;4.28;;;1.52;;
48613;SDS011;34408;51.426;5.444;2023-04-24T14:13:24;6.15;;;1.40;;
48613;SDS011;34408;51.426;5.444;2023-04-24T14:15:53;9.65;;;1.35;;
48613;SDS011;34408;51.426;5.444;2023-04-24T14:18:21;4.45;;;0.95;;
48613;SDS011;34408;51.426;5.444;2023-04-24T14:20:49;5.25;;;1.65;;
48613;SDS011;34408;51.426;5.444;2023-04-24T14:23:17;2.90;;;1.15;;
48613;SDS011;34408;51.426;5.444;2023-04-24T14:25:44;4.43;;;1.35;;
48613;SDS011;34408;51.426;5.444;2023-04-24T14:28:14;7.38;;;2.20;;
48613;SDS011;34408;51.426;5.444;2023-04-24T14:30:42;4.80;;;1.33;;
48613;SDS011;34408;51.426;5.444;2023-04-24T14:33:11;6.72;;;1.75;;
48613;SDS011;34408;51.426;5.444;2023-04-24T14:35:39;6.55;;;1.40;;
48613;SDS011;34408;51.426;5.444;2023-04-24T14:38:09;4.78;;;1.40;;
48613;SDS011;34408;51.426;5.444;2023-04-24T14:40:37;6.82;;;1.30;;
48613;SDS011;34408;51.426;5.444;2023-04-24T14:43:08;4.20;;;1.38;;
48613;SDS011;34408;51.426;5.444;2023-04-24T14:45:36;5.88;;;1.67;;
48613;SDS011;34408;51.426;5.444;2023-04-24T14:48:04;3.80;;;1.48;;
48613;SDS011;34408;51.426;5.444;2023-04-24T14:50:33;6.13;;;1.70;;
48613;SDS011;34408;51.426;5.444;2023-04-24T14:53:01;5.65;;;2.22;;
48613;SDS011;34408;51.426;5.444;2023-04-24T14:55:29;6.03;;;1.30;;
48613;SDS011;34408;51.426;5.444;2023-04-24T14:57:57;5.63;;;1.35;;
48613;SDS011;34408;51.426;5.444;2023-04-24T15:00:24;4.75;;;1.55;;
48613;SDS011;34408;51.426;5.444;2023-04-24T15:02:52;3.97;;;1.70;;
48613;SDS011;34408;51.426;5.444;2023-04-24T15:05:21;4.13;;;1.15;;